KQFV

Sachang

Sachang, South Korea
METAR KQFV 212000Z AUTO 13001KT 9999 OVC047 M04/M09 A3008 RMK A02 TSNO
Observed Flight Rules
Jan-21 @ 20:00 UTC (23 minutes ago) Visual Flight Rules
Wind Visibility Clouds
130° at 1 knots 10,000+ meters
  • Overcast at 4,700' AGL
Temperatures Readings
Current -4°C / 25°F
Dewpoint -9°C / 16°F
Humidity 69%
Altimeter 30.08" Hg
Pressure 1019 hPa
METAR KQFV 212000Z AUTO 13001KT 9999 OVC047 M04/M09 A3008 RMK A02 TSNO
Observed Flight Rules
Jan-21 @ 20:00 UTC
(23 minutes ago)
VFR
Wind Visibility
130° at 1 knots 10,000+ meters
Clouds
  • Overcast at 4,700' AGL
Temperature Dewpoint
-4°C / 25°F -9°C / 16°F
Humidity Altimeter Pressure
69% 30.08" Hg 1019 hPa